Time;durP1;ratioP1;P1;durP2;ratioP2;P2;SDS_P1;SDS_P2;PMS_P1;PMS_P2;Temp;Humidity;BMP_temperature;BMP_pressure;BME280_temperature;BME280_humidity;BME280_pressure;Samples;Min_cycle;Max_cycle;Signal;HPM_P1;HPM_P2
2023/03/21 00:00:34;;;;;;;28.10;16.25;;;9.30;99.90;;;;;;5055545;28;20136;-64
2023/03/21 00:03:00;;;;;;;26.73;16.25;;;9.20;99.90;;;;;;5037344;28;20057;-65
2023/03/21 00:05:26;;;;;;;28.70;16.48;;;9.30;99.90;;;;;;5037756;28;20053;-65
2023/03/21 00:07:52;;;;;;;28.95;16.95;;;9.20;99.90;;;;;;5055400;28;20041;-66
2023/03/21 00:10:17;;;;;;;31.35;17.58;;;9.20;99.90;;;;;;5055423;28;20424;-65
2023/03/21 00:12:43;;;;;;;30.88;16.88;;;9.20;99.90;;;;;;5055385;28;20049;-65
2023/03/21 00:15:11;;;;;;;29.65;16.42;;;9.20;99.90;;;;;;5055236;28;20493;-65
2023/03/21 00:17:38;;;;;;;27.45;15.52;;;9.20;99.90;;;;;;5055523;28;20036;-65
2023/03/21 00:20:05;;;;;;;21.27;13.02;;;9.20;99.90;;;;;;5055244;28;20095;-65
2023/03/21 00:22:33;;;;;;;28.88;16.20;;;9.30;99.90;;;;;;5055132;28;20041;-65
2023/03/21 00:24:59;;;;;;;22.50;13.90;;;9.30;99.90;;;;;;5055694;28;20056;-65
2023/03/21 00:27:25;;;;;;;24.23;14.57;;;9.10;99.90;;;;;;5053708;28;20389;-65
2023/03/21 00:29:50;;;;;;;27.88;14.93;;;9.10;99.90;;;;;;5055578;28;20049;-65
2023/03/21 00:32:17;;;;;;;23.45;13.30;;;9.40;99.90;;;;;;5037115;28;20041;-65
2023/03/21 00:34:43;;;;;;;21.90;12.93;;;9.30;99.90;;;;;;5037320;28;20049;-65
2023/03/21 00:37:11;;;;;;;28.55;15.65;;;9.40;99.90;;;;;;5055156;28;20064;-65
2023/03/21 00:39:37;;;;;;;25.58;14.40;;;9.30;99.90;;;;;;5054797;28;20080;-65
2023/03/21 00:42:03;;;;;;;20.30;12.73;;;9.40;99.90;;;;;;5054711;28;20080;-65
2023/03/21 00:44:31;;;;;;;26.13;14.75;;;9.30;99.90;;;;;;5054689;28;20088;-65
2023/03/21 00:47:01;;;;;;;22.75;13.35;;;9.30;99.90;;;;;;5054621;28;20040;-65
2023/03/21 00:49:32;;;;;;;25.67;13.77;;;9.50;99.90;;;;;;5054946;28;20099;-65
2023/03/21 00:52:02;;;;;;;25.13;13.85;;;9.40;99.90;;;;;;5054641;28;20053;-64
2023/03/21 00:54:28;;;;;;;22.23;13.00;;;9.40;99.90;;;;;;5054254;28;20517;-65
2023/03/21 00:56:54;;;;;;;24.48;13.75;;;9.30;99.90;;;;;;5055200;28;20073;-65
2023/03/21 00:59:19;;;;;;;21.10;12.15;;;9.30;99.90;;;;;;5054846;28;20381;-65
2023/03/21 01:01:45;;;;;;;19.92;12.05;;;9.30;99.90;;;;;;5054515;28;20045;-65
2023/03/21 01:04:13;;;;;;;21.33;11.93;;;9.30;99.90;;;;;;5055192;28;20074;-65
2023/03/21 01:06:40;;;;;;;21.30;11.23;;;9.30;99.90;;;;;;5054199;28;20440;-65
2023/03/21 01:09:10;;;;;;;23.95;11.60;;;9.30;99.90;;;;;;5055009;28;20041;-65
2023/03/21 01:11:36;;;;;;;20.55;10.60;;;9.30;99.90;;;;;;5055004;28;20057;-65
2023/03/21 01:14:01;;;;;;;22.35;12.43;;;9.30;99.90;;;;;;5054197;28;20504;-65
2023/03/21 01:16:27;;;;;;;24.35;11.55;;;9.30;99.90;;;;;;5054191;28;20098;-65
2023/03/21 01:18:53;;;;;;;19.30;11.13;;;9.30;99.90;;;;;;5054854;28;20079;-65
2023/03/21 01:21:19;;;;;;;19.58;10.50;;;9.30;99.90;;;;;;5053753;28;20393;-65
2023/03/21 01:23:45;;;;;;;19.00;10.60;;;9.40;99.90;;;;;;5037234;28;20037;-65
2023/03/21 01:26:12;;;;;;;18.80;9.98;;;9.40;99.90;;;;;;5053954;28;20045;-65
2023/03/21 01:28:39;;;;;;;22.80;11.13;;;9.40;99.90;;;;;;5036591;28;20045;-65
2023/03/21 01:31:05;;;;;;;27.23;12.57;;;9.30;99.90;;;;;;5053854;28;20401;-65
2023/03/21 01:33:32;;;;;;;23.58;11.43;;;9.30;99.90;;;;;;5054321;28;20431;-65
2023/03/21 01:35:58;;;;;;;31.92;13.85;;;9.30;99.90;;;;;;5054039;28;20052;-65
2023/03/21 01:38:24;;;;;;;32.20;13.27;;;9.50;99.90;;;;;;5054104;28;20064;-65
2023/03/21 01:40:50;;;;;;;28.88;14.13;;;9.30;99.90;;;;;;5053612;28;20486;-65
2023/03/21 01:43:31;;;;;;;39.10;14.90;;;9.50;99.90;;;;;;5035795;28;20067;-65
2023/03/21 01:46:06;;;;;;;41.65;15.75;;;9.30;99.90;;;;;;5053957;28;20124;-65
2023/03/21 01:48:35;;;;;;;38.28;14.50;;;9.50;99.90;;;;;;5036027;28;20056;-65
2023/03/21 01:51:02;;;;;;;40.72;15.45;;;9.40;99.90;;;;;;5054115;28;20099;-65
2023/03/21 01:53:32;;;;;;;41.35;15.48;;;9.40;99.90;;;;;;5054033;28;20097;-65
2023/03/21 01:56:26;;;;;;;41.15;15.77;;;9.50;99.90;;;;;;5035737;28;20040;-65
2023/03/21 01:58:57;;;;;;;50.10;16.83;;;9.40;99.90;;;;;;5045759;28;20136;-66
2023/03/21 02:01:23;;;;;;;52.92;18.42;;;9.20;99.90;;;;;;5054258;28;20049;-66
2023/03/21 02:03:51;;;;;;;37.20;15.77;;;9.40;99.90;;;;;;5052914;28;20543;-66
2023/03/21 02:06:34;;;;;;;39.35;17.08;;;9.30;99.90;;;;;;5035774;28;20059;-66
2023/03/21 02:09:03;;;;;;;44.90;17.20;;;9.20;99.90;;;;;;5053433;28;20176;-65
2023/03/21 02:11:31;;;;;;;43.38;17.20;;;9.40;99.90;;;;;;5053836;28;20041;-65
2023/03/21 02:13:56;;;;;;;42.03;16.10;;;9.20;99.90;;;;;;5053301;28;20065;-65
2023/03/21 02:16:38;;;;;;;29.83;14.07;;;9.40;99.90;;;;;;5053349;28;20052;-66
2023/03/21 02:19:06;;;;;;;33.17;14.40;;;9.60;99.90;;;;;;5053373;28;20064;-65
2023/03/21 02:22:09;;;;;;;34.05;15.55;;;9.40;99.90;;;;;;5053278;28;20106;-65
2023/03/21 02:25:03;;;;;;;32.28;15.05;;;9.40;99.90;;;;;;5035971;28;20037;-64
2023/03/21 02:27:39;;;;;;;30.92;13.70;;;9.40;99.90;;;;;;5042544;28;20059;-65
2023/03/21 02:30:14;;;;;;;30.77;14.55;;;9.40;99.90;;;;;;5053230;28;20048;-65
2023/03/21 02:33:18;;;;;;;31.75;14.85;;;9.40;99.90;;;;;;5053093;28;20052;-65
2023/03/21 02:35:53;;;;;;;;;;;9.40;99.90;;;;;;5036115;28;20052;-65
2023/03/21 02:38:37;;;;;;;32.60;14.38;;;9.50;99.90;;;;;;5053064;28;19927;-65
2023/03/21 02:41:09;;;;;;;31.02;14.90;;;9.30;99.90;;;;;;5053613;28;20052;-65
2023/03/21 02:43:36;;;;;;;28.67;13.23;;;9.40;99.90;;;;;;5053047;28;20088;-65
2023/03/21 02:46:17;;;;;;;28.10;14.40;;;9.40;99.90;;;;;;5053575;28;20052;-65
2023/03/21 02:48:57;;;;;;;28.77;14.40;;;9.50;99.90;;;;;;5037259;28;20060;-65
2023/03/21 02:51:26;;;;;;;30.13;13.55;;;9.40;99.90;;;;;;5056771;28;20053;-65
2023/03/21 02:53:57;;;;;;;27.88;13.88;;;9.40;99.90;;;;;;5056786;28;20049;-66
2023/03/21 02:56:24;;;;;;;29.70;14.30;;;9.50;99.90;;;;;;5056936;28;20045;-66
2023/03/21 02:58:51;;;;;;;29.42;14.02;;;9.30;99.90;;;;;;5039084;28;20049;-65
2023/03/21 03:01:17;;;;;;;26.25;13.48;;;9.40;99.90;;;;;;5056684;28;20050;-65
2023/03/21 03:03:43;;;;;;;24.30;12.82;;;9.50;99.90;;;;;;5056270;28;20524;-65
2023/03/21 03:06:19;;;;;;;23.65;11.70;;;9.40;99.90;;;;;;5056943;28;20408;-66
2023/03/21 03:09:22;;;;;;;23.25;12.07;;;9.50;99.90;;;;;;5038688;28;20155;-66
2023/03/21 03:11:53;;;;;;;29.58;14.27;;;9.50;99.90;;;;;;5056520;28;20049;-64
2023/03/21 03:14:28;;;;;;;22.60;11.43;;;9.40;99.90;;;;;;5056505;28;20125;-65
2023/03/21 03:17:15;;;;;;;23.35;11.45;;;9.40;99.90;;;;;;5056456;28;20048;-65
2023/03/21 03:20:14;;;;;;;22.90;11.75;;;9.40;99.90;;;;;;5056702;28;20075;-66
2023/03/21 03:22:57;;;;;;;22.17;11.07;;;9.40;99.90;;;;;;5057252;28;20079;-66
2023/03/21 03:25:34;;;;;;;22.05;11.55;;;9.50;99.90;;;;;;5056519;28;20437;-65
2023/03/21 03:28:03;;;;;;;23.80;11.75;;;9.50;99.90;;;;;;5056180;28;20500;-66
2023/03/21 03:30:29;;;;;;;28.85;13.88;;;9.40;99.90;;;;;;5038913;28;20099;-66
2023/03/21 03:33:01;;;;;;;25.88;12.93;;;9.50;99.90;;;;;;5038366;28;20045;-66
2023/03/21 03:35:27;;;;;;;27.60;13.43;;;9.60;99.90;;;;;;5056730;28;20055;-66
2023/03/21 03:37:56;;;;;;;20.73;11.15;;;9.50;99.90;;;;;;5056070;28;20474;-66
2023/03/21 03:40:27;;;;;;;23.98;11.98;;;9.50;99.90;;;;;;5055958;28;20053;-66
2023/03/21 03:42:59;;;;;;;25.95;13.45;;;9.50;99.90;;;;;;5055945;28;20045;-65
2023/03/21 03:45:32;;;;;;;22.83;11.40;;;9.50;99.90;;;;;;5039094;28;20048;-67
2023/03/21 03:48:26;;;;;;;21.10;11.30;;;9.50;99.90;;;;;;5055822;28;20066;-66
2023/03/21 03:51:12;;;;;;;20.00;11.30;;;9.50;99.90;;;;;;5055809;28;20095;-66
2023/03/21 03:53:49;;;;;;;20.92;10.60;;;9.30;99.90;;;;;;5056287;28;20127;-65
2023/03/21 03:56:15;;;;;;;21.83;11.10;;;9.50;99.90;;;;;;5056215;28;20362;-66
2023/03/21 03:58:41;;;;;;;19.50;10.05;;;9.50;99.90;;;;;;5056100;28;20144;-66
2023/03/21 04:01:07;;;;;;;18.52;10.00;;;9.50;99.90;;;;;;5055546;28;20528;-66
2023/03/21 04:03:39;;;;;;;19.58;10.18;;;9.50;99.90;;;;;;5055237;28;20064;-66
2023/03/21 04:06:05;;;;;;;17.15;9.00;;;9.50;99.90;;;;;;5056059;28;20413;-66
2023/03/21 04:08:31;;;;;;;19.08;9.80;;;9.60;99.90;;;;;;5055444;28;20055;-65
2023/03/21 04:10:56;;;;;;;17.27;9.75;;;9.50;99.90;;;;;;5056005;28;20477;-66
2023/03/21 04:13:22;;;;;;;14.52;8.80;;;9.50;99.90;;;;;;5055364;28;20087;-66
2023/03/21 04:15:48;;;;;;;17.63;10.02;;;9.50;99.90;;;;;;5055371;28;20052;-65
2023/03/21 04:18:14;;;;;;;17.75;8.95;;;9.30;99.90;;;;;;5055909;28;20041;-66
2023/03/21 04:20:40;;;;;;;16.55;9.00;;;9.70;99.90;;;;;;5056037;28;20045;-66
2023/03/21 04:23:06;;;;;;;16.92;9.10;;;9.50;99.90;;;;;;5021130;28;20400;-65
2023/03/21 04:25:36;;;;;;;19.00;9.48;;;9.50;99.90;;;;;;5055176;28;20048;-66
2023/03/21 04:28:02;;;;;;;20.77;9.40;;;9.50;99.90;;;;;;5054986;28;20041;-66
2023/03/21 04:30:27;;;;;;;19.65;10.45;;;9.70;99.90;;;;;;5055061;28;20509;-66
2023/03/21 04:32:55;;;;;;;21.90;10.68;;;9.40;99.90;;;;;;5037100;28;20479;-66
2023/03/21 04:35:22;;;;;;;19.73;10.38;;;9.60;99.90;;;;;;5055791;28;20071;-66
2023/03/21 04:37:48;;;;;;;18.98;10.13;;;9.40;99.90;;;;;;5054887;28;20045;-65
2023/03/21 04:40:17;;;;;;;21.63;10.52;;;9.60;99.90;;;;;;5054937;28;20051;-65
2023/03/21 04:42:44;;;;;;;20.02;10.57;;;9.60;99.90;;;;;;5055372;28;20075;-66
2023/03/21 04:45:10;;;;;;;21.05;10.57;;;9.50;99.90;;;;;;5054913;28;20056;-66
2023/03/21 04:47:36;;;;;;;22.27;11.68;;;9.60;99.90;;;;;;5021511;28;20045;-65
2023/03/21 04:50:02;;;;;;;19.02;9.88;;;9.50;99.90;;;;;;5057857;28;20055;-66
2023/03/21 04:52:28;;;;;;;19.63;10.60;;;9.50;99.90;;;;;;5058312;28;20074;-66
2023/03/21 04:54:53;;;;;;;19.75;10.27;;;9.60;99.90;;;;;;5038285;28;20143;-65
2023/03/21 04:57:19;;;;;;;17.10;9.07;;;9.60;99.90;;;;;;5055397;28;20055;-65
2023/03/21 04:59:45;;;;;;;17.70;9.32;;;9.30;99.90;;;;;;5055053;28;20041;-66
2023/03/21 05:02:12;;;;;;;16.70;8.43;;;9.70;99.90;;;;;;5054416;28;20044;-66
2023/03/21 05:04:38;;;;;;;16.23;8.38;;;9.50;99.90;;;;;;5054232;28;20405;-66
2023/03/21 05:07:04;;;;;;;15.50;8.18;;;9.60;99.90;;;;;;5054479;28;20473;-66
2023/03/21 05:09:29;;;;;;;17.95;8.32;;;9.60;99.90;;;;;;5054351;28;20048;-66
2023/03/21 05:11:55;;;;;;;16.80;8.57;;;9.90;99.90;;;;;;5054229;28;20436;-65
2023/03/21 05:14:24;;;;;;;16.95;7.90;;;9.50;99.90;;;;;;5036049;28;20045;-66
2023/03/21 05:16:54;;;;;;;20.05;9.18;;;9.60;99.90;;;;;;5036382;28;20045;-66
2023/03/21 05:19:33;;;;;;;15.43;8.18;;;9.40;99.90;;;;;;5055275;28;20059;-66
2023/03/21 05:22:03;;;;;;;15.50;7.63;;;9.60;99.90;;;;;;5054192;28;20051;-66
2023/03/21 05:24:30;;;;;;;14.80;8.27;;;9.40;99.90;;;;;;5054493;28;20048;-66
2023/03/21 05:27:00;;;;;;;17.50;8.20;;;9.50;99.90;;;;;;5054210;28;20037;-66
2023/03/21 05:29:27;;;;;;;17.15;8.40;;;9.50;99.90;;;;;;5020740;28;20052;-66
2023/03/21 05:31:53;;;;;;;13.77;7.07;;;9.40;99.90;;;;;;5057883;28;20048;-66
2023/03/21 05:34:19;;;;;;;16.83;8.43;;;9.60;99.90;;;;;;5057348;28;20095;-65
2023/03/21 05:36:44;;;;;;;17.13;8.75;;;9.50;99.90;;;;;;5037876;28;20055;-65
2023/03/21 05:39:10;;;;;;;16.20;8.25;;;9.60;99.90;;;;;;5054488;28;20067;-66
2023/03/21 05:41:36;;;;;;;18.52;9.00;;;9.40;99.90;;;;;;5035833;28;20132;-66
2023/03/21 05:44:01;;;;;;;16.38;8.40;;;9.70;99.90;;;;;;5053760;28;20041;-66
2023/03/21 05:46:27;;;;;;;14.68;7.85;;;9.50;99.90;;;;;;5053925;28;20481;-66
2023/03/21 05:48:53;;;;;;;16.23;8.23;;;9.60;99.90;;;;;;5053822;28;20052;-66
2023/03/21 05:51:18;;;;;;;17.95;9.32;;;9.50;99.90;;;;;;5053642;28;20047;-66
2023/03/21 05:53:44;;;;;;;16.55;8.02;;;9.50;99.90;;;;;;5036283;28;20048;-66
2023/03/21 05:56:10;;;;;;;14.68;8.38;;;9.60;99.90;;;;;;5054165;28;20122;-66
2023/03/21 05:58:36;;;;;;;15.63;7.80;;;9.50;99.90;;;;;;5036249;28;20072;-66
2023/03/21 06:01:01;;;;;;;16.30;8.57;;;9.40;99.90;;;;;;5036365;28;20068;-66
2023/03/21 06:03:27;;;;;;;13.27;8.18;;;9.50;99.90;;;;;;5035589;28;20049;-66
2023/03/21 06:05:53;;;;;;;17.38;8.93;;;9.50;99.90;;;;;;5053501;28;20057;-66
2023/03/21 06:08:18;;;;;;;17.00;8.98;;;9.50;99.90;;;;;;5053634;28;20054;-66
2023/03/21 06:10:44;;;;;;;15.20;7.43;;;9.50;99.90;;;;;;5035650;28;20064;-66
2023/03/21 06:13:10;;;;;;;15.35;8.25;;;9.50;99.90;;;;;;5053659;28;20092;-66
2023/03/21 06:15:35;;;;;;;14.82;8.18;;;9.50;99.90;;;;;;5035687;28;20125;-66
2023/03/21 06:18:01;;;;;;;14.68;8.57;;;9.40;99.90;;;;;;5036033;28;20049;-66
2023/03/21 06:20:27;;;;;;;16.10;8.80;;;9.40;99.90;;;;;;5053954;28;20118;-65
2023/03/21 06:22:53;;;;;;;13.35;7.93;;;9.60;99.90;;;;;;5053296;28;20055;-66
2023/03/21 06:25:18;;;;;;;13.75;8.48;;;9.50;99.90;;;;;;5054862;28;20128;-66
2023/03/21 06:27:44;;;;;;;16.58;9.60;;;9.50;99.90;;;;;;5057273;28;20091;-66
2023/03/21 06:30:11;;;;;;;18.02;9.15;;;9.60;99.90;;;;;;5057288;28;20071;-66
2023/03/21 06:32:36;;;;;;;17.30;10.10;;;9.50;99.90;;;;;;5057238;28;20053;-66
2023/03/21 06:35:03;;;;;;;16.20;9.02;;;9.50;99.90;;;;;;5057357;28;20147;-66
2023/03/21 06:37:29;;;;;;;17.20;9.23;;;9.50;99.90;;;;;;5057237;28;20053;-66
2023/03/21 06:39:54;;;;;;;16.10;9.23;;;9.50;99.90;;;;;;5039668;28;20040;-66
2023/03/21 06:42:20;;;;;;;16.67;9.95;;;9.60;99.90;;;;;;5057178;28;20048;-66
2023/03/21 06:44:46;;;;;;;17.58;10.00;;;9.50;99.90;;;;;;5057059;28;20084;-66
2023/03/21 06:47:11;;;;;;;15.10;8.98;;;9.50;99.90;;;;;;5056939;28;20045;-66
2023/03/21 06:49:37;;;;;;;16.33;9.70;;;9.50;99.90;;;;;;5057508;28;20049;-66
2023/03/21 06:52:03;;;;;;;14.68;9.43;;;9.60;99.90;;;;;;5056803;28;20052;-66
2023/03/21 06:54:29;;;;;;;19.85;11.15;;;9.60;99.90;;;;;;5056900;28;20045;-66
2023/03/21 06:56:55;;;;;;;20.48;10.98;;;9.60;99.90;;;;;;5056864;28;20048;-66
2023/03/21 06:59:21;;;;;;;16.85;10.50;;;9.60;99.90;;;;;;5056782;28;20132;-66
2023/03/21 07:01:47;;;;;;;18.70;10.18;;;9.50;99.90;;;;;;5056660;28;20099;-66
2023/03/21 07:04:13;;;;;;;17.60;10.35;;;9.60;99.90;;;;;;5037967;28;20056;-66
2023/03/21 07:06:39;;;;;;;18.02;10.77;;;9.60;99.90;;;;;;5055257;28;20052;-65
2023/03/21 07:09:05;;;;;;;16.50;9.60;;;9.70;99.90;;;;;;5055251;28;20048;-65
2023/03/21 07:11:31;;;;;;;19.17;11.05;;;9.60;99.90;;;;;;5021200;28;20053;-65
2023/03/21 07:13:57;;;;;;;17.85;11.05;;;9.50;99.90;;;;;;5037999;28;20037;-67
2023/03/21 07:16:23;;;;;;;16.45;9.85;;;9.60;99.90;;;;;;5055192;28;20118;-65
2023/03/21 07:18:50;;;;;;;19.17;10.82;;;9.60;99.90;;;;;;5055135;28;20049;-66
2023/03/21 07:21:16;;;;;;;18.10;10.98;;;9.50;99.90;;;;;;5055708;28;20540;-65
2023/03/21 07:23:41;;;;;;;20.27;11.73;;;9.50;99.90;;;;;;5037626;28;20049;-65
2023/03/21 07:26:08;;;;;;;17.63;11.20;;;9.60;99.90;;;;;;5055122;28;20051;-65
2023/03/21 07:28:33;;;;;;;18.23;10.70;;;9.60;99.90;;;;;;5054906;28;20499;-65
2023/03/21 07:31:03;;;;;;;18.10;10.80;;;9.50;99.90;;;;;;5021732;28;20053;-65
2023/03/21 07:33:29;;;;;;;16.95;10.43;;;9.70;99.90;;;;;;5054792;28;20049;-66
2023/03/21 07:35:56;;;;;;;17.13;10.52;;;9.60;99.90;;;;;;5055301;28;20124;-66
2023/03/21 07:38:22;;;;;;;17.10;10.57;;;9.60;99.90;;;;;;5054927;28;20049;-65
2023/03/21 07:40:48;;;;;;;15.90;9.82;;;9.70;99.90;;;;;;5055165;28;20049;-65
2023/03/21 07:43:15;;;;;;;15.52;9.48;;;9.60;99.90;;;;;;5055565;28;20423;-65
2023/03/21 07:45:41;;;;;;;16.33;9.23;;;9.60;99.90;;;;;;5054750;28;20087;-65
2023/03/21 07:48:08;;;;;;;18.10;10.13;;;9.70;99.90;;;;;;5054647;28;20037;-65
2023/03/21 07:50:34;;;;;;;16.67;9.63;;;9.60;99.90;;;;;;5055403;28;20045;-66
2023/03/21 07:53:00;;;;;;;15.90;8.60;;;9.70;99.90;;;;;;5054653;28;20051;-65
2023/03/21 07:55:26;;;;;;;19.17;10.50;;;9.70;99.90;;;;;;5054848;28;20075;-65
2023/03/21 07:57:52;;;;;;;14.05;8.43;;;9.80;99.90;;;;;;5054648;28;20447;-65
2023/03/21 08:00:22;;;;;;;14.30;8.25;;;9.60;99.90;;;;;;5054627;28;20040;-65
2023/03/21 08:02:53;;;;;;;13.73;8.00;;;9.70;99.90;;;;;;5054505;28;20045;-66
2023/03/21 08:05:29;;;;;;;15.35;8.60;;;9.70;99.90;;;;;;5017498;28;1101397;-65
2023/03/21 08:07:56;;;;;;;12.90;7.85;;;9.80;99.90;;;;;;5037967;28;20056;-66
2023/03/21 08:10:22;;;;;;;12.18;7.15;;;9.80;99.90;;;;;;5055547;28;20041;-65
2023/03/21 08:12:48;;;;;;;15.52;8.48;;;9.80;99.90;;;;;;5055630;28;20051;-65
2023/03/21 08:15:14;;;;;;;11.50;7.00;;;9.80;99.90;;;;;;5055221;28;20053;-65
2023/03/21 08:17:44;;;;;;;11.63;6.95;;;9.80;99.90;;;;;;5055577;28;20103;-65
2023/03/21 08:20:12;;;;;;;11.23;6.40;;;9.80;99.90;;;;;;5038528;28;20057;-65
2023/03/21 08:22:38;;;;;;;12.10;6.40;;;9.80;99.90;;;;;;5037619;28;20037;-65
2023/03/21 08:25:05;;;;;;;9.77;6.00;;;9.80;99.90;;;;;;5055303;28;20053;-66
2023/03/21 08:27:32;;;;;;;10.38;6.22;;;9.80;99.90;;;;;;5054791;28;20396;-66
2023/03/21 08:29:58;;;;;;;9.23;5.45;;;9.80;99.90;;;;;;5055701;28;20091;-66
2023/03/21 08:32:28;;;;;;;8.40;4.70;;;9.10;99.90;;;;;;5054763;28;20548;-66
2023/03/21 08:35:08;;;;;;;8.50;4.50;;;9.80;99.90;;;;;;5037762;28;20044;-66
2023/03/21 08:37:37;;;;;;;7.03;4.60;;;9.80;99.90;;;;;;5055624;28;20052;-65
2023/03/21 08:40:07;;;;;;;6.88;4.45;;;9.80;99.90;;;;;;5054995;28;20092;-65
2023/03/21 08:42:33;;;;;;;6.90;4.60;;;9.80;99.90;;;;;;5055735;28;20135;-65
2023/03/21 08:44:59;;;;;;;6.30;4.00;;;9.80;99.90;;;;;;5054896;28;20095;-66
2023/03/21 08:47:24;;;;;;;9.52;5.68;;;9.90;99.90;;;;;;5053973;28;20048;-66
2023/03/21 08:49:50;;;;;;;11.27;6.75;;;9.80;99.90;;;;;;5054796;28;20084;-66
2023/03/21 08:52:16;;;;;;;7.05;4.97;;;9.90;99.90;;;;;;5054488;28;20099;-65
2023/03/21 08:54:43;;;;;;;8.27;4.90;;;9.90;99.90;;;;;;5054726;28;20045;-65
2023/03/21 08:57:10;;;;;;;8.82;4.80;;;9.90;99.90;;;;;;5054618;28;20473;-65
2023/03/21 08:59:36;;;;;;;8.63;5.78;;;9.80;99.90;;;;;;5037277;28;20048;-65
2023/03/21 09:02:02;;;;;;;7.13;4.47;;;9.80;99.90;;;;;;5054560;28;20076;-65
2023/03/21 09:04:29;;;;;;;12.23;7.55;;;9.90;99.90;;;;;;5020380;28;20088;-66
2023/03/21 09:06:56;;;;;;;8.57;5.70;;;9.90;99.90;;;;;;5054399;28;20045;-66
2023/03/21 09:09:21;;;;;;;8.32;5.20;;;9.90;99.90;;;;;;5054463;28;20041;-65
2023/03/21 09:11:47;;;;;;;9.93;5.38;;;9.90;99.90;;;;;;5036839;28;20113;-65
2023/03/21 09:14:13;;;;;;;7.22;4.80;;;9.90;99.90;;;;;;5055188;28;20080;-65
2023/03/21 09:16:40;;;;;;;8.15;5.10;;;9.90;99.90;;;;;;5054280;28;20040;-65
2023/03/21 09:19:07;;;;;;;7.10;4.97;;;10.00;99.90;;;;;;5054753;28;20075;-66
2023/03/21 09:21:33;;;;;;;6.85;4.85;;;10.00;99.90;;;;;;5054125;28;20049;-66
2023/03/21 09:23:59;;;;;;;8.13;5.38;;;9.90;99.90;;;;;;5037279;28;20057;-66
2023/03/21 09:26:26;;;;;;;7.07;4.72;;;10.00;99.90;;;;;;5054087;28;20049;-66
2023/03/21 09:28:53;;;;;;;7.80;4.70;;;9.90;99.90;;;;;;5036971;28;20465;-66
2023/03/21 09:31:23;;;;;;;9.15;5.80;;;9.90;99.90;;;;;;5054386;28;20132;-67
2023/03/21 09:33:54;;;;;;;7.75;5.40;;;10.00;99.90;;;;;;5054841;28;20128;-66
2023/03/21 09:36:20;;;;;;;10.30;6.03;;;9.90;99.90;;;;;;5054234;28;20124;-66
2023/03/21 09:38:48;;;;;;;10.27;6.13;;;9.90;99.90;;;;;;5053910;28;20084;-66
2023/03/21 09:41:40;;;;;;;8.40;5.68;;;10.00;99.90;;;;;;5053875;28;20060;-66
2023/03/21 09:44:27;;;;;;;13.63;6.90;;;10.00;99.90;;;;;;5032998;28;20086;-66
2023/03/21 09:47:02;;;;;;;9.23;6.65;;;10.00;99.90;;;;;;5036884;28;20179;-67
2023/03/21 09:49:31;;;;;;;11.98;7.43;;;10.00;99.90;;;;;;5053725;28;20412;-66
2023/03/21 09:52:08;;;;;;;10.50;6.82;;;9.90;99.90;;;;;;5054258;28;20391;-67
2023/03/21 09:54:41;;;;;;;9.20;6.25;;;9.90;99.90;;;;;;5054351;28;20041;-66
2023/03/21 09:57:22;;;;;;;12.43;8.85;;;9.90;99.90;;;;;;5053717;28;20037;-67
2023/03/21 09:59:49;;;;;;;12.02;7.40;;;9.90;99.90;;;;;;5036899;28;20068;-67
2023/03/21 10:02:39;;;;;;;10.77;6.75;;;9.90;99.90;;;;;;5053675;28;20040;-67
2023/03/21 10:05:31;;;;;;;13.75;7.88;;;10.10;99.90;;;;;;5053757;28;20074;-67
2023/03/21 10:08:18;;;;;;;12.10;7.22;;;10.00;99.90;;;;;;5051273;28;20092;-67
2023/03/21 10:10:54;;;;;;;13.13;8.00;;;10.00;99.90;;;;;;5036483;28;20461;-67
2023/03/21 10:13:24;;;;;;;12.32;7.65;;;10.00;99.90;;;;;;5036337;28;20132;-67
2023/03/21 10:15:56;;;;;;;12.88;8.13;;;9.90;99.90;;;;;;5036631;28;20428;-66
2023/03/21 10:18:25;;;;;;;13.57;8.20;;;10.00;99.90;;;;;;5053535;28;20045;-66
2023/03/21 10:20:51;;;;;;;15.60;10.10;;;9.90;99.90;;;;;;5054414;28;20041;-67
2023/03/21 10:23:21;;;;;;;17.80;11.20;;;9.90;99.90;;;;;;5057390;28;20056;-66
2023/03/21 10:25:59;;;;;;;18.13;10.82;;;10.00;99.90;;;;;;5057819;28;20045;-66
2023/03/21 10:28:32;;;;;;;15.57;10.55;;;9.90;99.90;;;;;;5056529;28;20045;-66
2023/03/21 10:31:01;;;;;;;17.87;11.20;;;9.90;99.90;;;;;;5056621;28;20045;-66
2023/03/21 10:33:41;;;;;;;17.75;10.63;;;9.90;99.90;;;;;;5053177;28;20119;-66
2023/03/21 10:36:19;;;;;;;18.40;10.70;;;9.90;99.90;;;;;;5053629;28;20056;-66
2023/03/21 10:38:47;;;;;;;19.33;12.00;;;9.90;99.90;;;;;;5053347;28;20045;-66
2023/03/21 10:41:13;;;;;;;20.40;11.98;;;9.90;99.90;;;;;;5052889;28;20519;-66
2023/03/21 10:43:44;;;;;;;17.02;11.35;;;9.90;99.90;;;;;;5053246;28;20052;-66
2023/03/21 10:46:20;;;;;;;21.95;12.60;;;9.80;99.90;;;;;;5036019;28;20385;-67
2023/03/21 10:48:51;;;;;;;19.02;12.65;;;9.80;99.90;;;;;;5054014;28;20128;-67
2023/03/21 10:51:24;;;;;;;22.05;13.80;;;9.80;99.90;;;;;;5055304;28;20128;-67
2023/03/21 10:53:59;;;;;;;20.73;12.68;;;9.80;99.90;;;;;;5059861;28;20049;-67
2023/03/21 10:56:28;;;;;;;25.48;14.32;;;9.80;99.90;;;;;;5053448;28;20053;-67
2023/03/21 10:58:57;;;;;;;23.25;12.05;;;9.80;99.90;;;;;;5054076;28;20084;-66
2023/03/21 11:01:41;;;;;;;23.60;12.75;;;9.70;99.90;;;;;;5052525;28;20044;-66
2023/03/21 11:04:16;;;;;;;19.52;12.90;;;9.70;99.90;;;;;;5054432;28;20061;-66
2023/03/21 11:06:51;;;;;;;37.35;20.48;;;9.70;99.90;;;;;;5052945;28;20485;-66
2023/03/21 11:09:20;;;;;;;27.95;17.20;;;9.90;99.90;;;;;;5035478;28;20463;-66
2023/03/21 11:12:08;;;;;;;23.30;15.07;;;9.70;99.90;;;;;;5037116;28;20044;-66
2023/03/21 11:14:40;;;;;;;23.38;13.45;;;9.70;99.90;;;;;;5056433;28;20091;-66
2023/03/21 11:17:19;;;;;;;25.77;14.23;;;9.70;99.90;;;;;;5056676;28;20049;-66
2023/03/21 11:20:00;;;;;;;23.67;13.98;;;9.80;99.90;;;;;;5038783;28;20135;-66
2023/03/21 11:22:29;;;;;;;20.17;12.07;;;9.80;99.90;;;;;;5056364;28;20067;-66
2023/03/21 11:25:00;;;;;;;19.65;12.40;;;9.80;99.90;;;;;;5038683;28;20088;-66
2023/03/21 11:27:28;;;;;;;20.92;13.25;;;9.90;99.90;;;;;;5038316;28;20080;-66
2023/03/21 11:29:56;;;;;;;23.90;12.50;;;9.90;99.90;;;;;;5056126;28;20053;-66
2023/03/21 11:32:21;;;;;;;16.35;10.32;;;9.90;99.90;;;;;;5056441;28;20388;-66
2023/03/21 11:34:59;;;;;;;23.05;11.68;;;9.90;99.90;;;;;;5055986;28;20044;-66
2023/03/21 11:37:26;;;;;;;21.42;11.25;;;9.90;99.90;;;;;;5038391;28;20053;-66
2023/03/21 11:40:05;;;;;;;15.10;10.25;;;10.00;99.90;;;;;;5055922;28;20045;-66
2023/03/21 11:42:39;;;;;;;19.65;11.38;;;10.00;99.90;;;;;;5056012;28;20045;-66
2023/03/21 11:45:15;;;;;;;19.08;10.43;;;10.20;99.90;;;;;;5056422;28;20041;-66
2023/03/21 11:47:41;;;;;;;14.48;10.40;;;10.20;99.90;;;;;;5056085;28;20106;-66
2023/03/21 11:50:31;;;;;;;14.52;9.85;;;10.20;99.90;;;;;;5056091;28;20041;-66
2023/03/21 11:53:25;;;;;;;18.80;9.93;;;9.70;99.90;;;;;;5030644;28;20057;-66
2023/03/21 11:56:18;;;;;;;16.92;10.85;;;10.30;99.90;;;;;;5038349;28;20389;-66
2023/03/21 11:59:10;;;;;;;19.67;11.82;;;10.40;99.90;;;;;;5038868;28;20206;-67
2023/03/21 12:01:48;;;;;;;19.52;10.68;;;10.30;99.90;;;;;;5055656;28;20063;-66
2023/03/21 12:04:40;;;;;;;17.58;10.45;;;10.40;99.90;;;;;;5055421;28;20061;-66
2023/03/21 12:07:34;;;;;;;14.90;10.05;;;10.50;99.90;;;;;;5054716;28;20554;-67
2023/03/21 12:10:11;;;;;;;15.40;9.27;;;10.50;99.90;;;;;;5055731;28;20053;-66
2023/03/21 12:13:05;;;;;;;19.33;11.07;;;10.60;99.90;;;;;;5055916;28;20051;-66
2023/03/21 12:15:36;;;;;;;;;;;10.60;99.90;;;;;;5055783;28;20052;-66
2023/03/21 12:18:41;;;;;;;15.25;9.30;;;10.60;99.90;;;;;;5056022;28;19982;-66
2023/03/21 12:21:42;;;;;;;19.17;10.95;;;10.50;99.90;;;;;;5055773;28;20056;-66
2023/03/21 12:24:22;;;;;;;13.60;9.18;;;10.60;99.90;;;;;;5024084;28;20103;-66
2023/03/21 12:27:02;;;;;;;20.20;10.90;;;10.70;99.90;;;;;;5054988;28;20524;-66
2023/03/21 12:29:55;;;;;;;15.32;10.10;;;10.70;99.90;;;;;;5055575;28;20045;-67
2023/03/21 12:32:33;;;;;;;14.15;8.85;;;10.90;99.90;;;;;;5055256;28;20119;-66
2023/03/21 12:35:17;;;;;;;14.55;9.95;;;10.70;99.90;;;;;;5055691;28;20053;-67
2023/03/21 12:38:07;;;;;;;16.60;9.93;;;10.80;99.90;;;;;;5054833;28;20045;-66
2023/03/21 12:40:57;;;;;;;17.40;8.55;;;10.90;99.90;;;;;;5054795;28;20127;-66
2023/03/21 12:43:35;;;;;;;13.52;8.35;;;10.90;99.90;;;;;;5055071;28;20583;-66
2023/03/21 12:46:05;;;;;;;12.45;8.20;;;10.90;99.90;;;;;;5054837;28;20087;-67
2023/03/21 12:48:51;;;;;;;14.18;8.38;;;10.90;99.90;;;;;;5055087;28;20046;-68
2023/03/21 12:51:28;;;;;;;11.85;7.65;;;10.90;99.90;;;;;;5054497;28;20041;-67
2023/03/21 12:54:04;;;;;;;13.20;7.45;;;10.90;99.90;;;;;;5054300;28;20049;-66
2023/03/21 12:56:35;;;;;;;13.32;7.80;;;10.90;99.90;;;;;;5055098;28;20084;-66
2023/03/21 12:59:15;;;;;;;12.63;7.00;;;10.90;99.90;;;;;;5054600;28;20045;-67